sensor_id;sensor_type;location;lat;lon;timestamp;pressure;altitude;pressure_sealevel;temperature;humidity
13348;BME280;6743;49.934;9.138;2024-03-23T00:52:28;99602.91;;;10.02;100.00
13348;BME280;6743;49.934;9.138;2024-03-23T00:54:54;99591.66;;;10.00;100.00
13348;BME280;6743;49.934;9.138;2024-03-23T00:57:20;99584.88;;;9.97;100.00
13348;BME280;6743;49.934;9.138;2024-03-23T00:59:46;99571.34;;;9.92;100.00
13348;BME280;6743;49.934;9.138;2024-03-23T01:02:12;99557.25;;;9.92;100.00
13348;BME280;6743;49.934;9.138;2024-03-23T01:04:39;99556.59;;;9.89;100.00
13348;BME280;6743;49.934;9.138;2024-03-23T01:07:05;99561.06;;;9.89;100.00
13348;BME280;6743;49.934;9.138;2024-03-23T01:09:30;99547.03;;;9.88;100.00
13348;BME280;6743;49.934;9.138;2024-03-23T01:11:56;99542.91;;;9.86;100.00
13348;BME280;6743;49.934;9.138;2024-03-23T01:14:22;99538.94;;;9.82;100.00
13348;BME280;6743;49.934;9.138;2024-03-23T01:16:48;99541.78;;;9.80;100.00
13348;BME280;6743;49.934;9.138;2024-03-23T01:19:14;99531.38;;;9.79;100.00
13348;BME280;6743;49.934;9.138;2024-03-23T01:21:40;99526.25;;;9.77;100.00
13348;BME280;6743;49.934;9.138;2024-03-23T01:24:08;99520.28;;;9.75;100.00
13348;BME280;6743;49.934;9.138;2024-03-23T01:26:36;99510.72;;;9.74;100.00
13348;BME280;6743;49.934;9.138;2024-03-23T01:29:02;99512.87;;;9.71;100.00
13348;BME280;6743;49.934;9.138;2024-03-23T01:31:28;99516.06;;;9.66;100.00
13348;BME280;6743;49.934;9.138;2024-03-23T01:33:54;99516.06;;;9.66;100.00
13348;BME280;6743;49.934;9.138;2024-03-23T01:36:20;99508.31;;;9.65;100.00
13348;BME280;6743;49.934;9.138;2024-03-23T01:38:46;99505.00;;;9.63;100.00
13348;BME280;6743;49.934;9.138;2024-03-23T01:41:12;99506.31;;;9.67;100.00
13348;BME280;6743;49.934;9.138;2024-03-23T01:43:38;99474.81;;;9.49;100.00
13348;BME280;6743;49.934;9.138;2024-03-23T01:46:04;99507.75;;;9.69;100.00
13348;BME280;6743;49.934;9.138;2024-03-23T01:48:30;99464.59;;;9.46;100.00
13348;BME280;6743;49.934;9.138;2024-03-23T01:50:55;99500.47;;;9.71;100.00
13348;BME280;6743;49.934;9.138;2024-03-23T01:53:22;99495.81;;;9.73;100.00
13348;BME280;6743;49.934;9.138;2024-03-23T01:55:50;99490.16;;;9.76;100.00
13348;BME280;6743;49.934;9.138;2024-03-23T01:58:16;99485.16;;;9.81;100.00
13348;BME280;6743;49.934;9.138;2024-03-23T02:00:42;99490.09;;;9.84;100.00
13348;BME280;6743;49.934;9.138;2024-03-23T02:03:24;99478.16;;;9.88;100.00
13348;BME280;6743;49.934;9.138;2024-03-23T02:05:50;99475.13;;;9.92;100.00
13348;BME280;6743;49.934;9.138;2024-03-23T02:08:20;99426.38;;;9.63;100.00
13348;BME280;6743;49.934;9.138;2024-03-23T02:10:46;99474.59;;;9.96;100.00
13348;BME280;6743;49.934;9.138;2024-03-23T02:13:14;99472.97;;;9.95;100.00
13348;BME280;6743;49.934;9.138;2024-03-23T02:15:40;99472.12;;;9.95;100.00
13348;BME280;6743;49.934;9.138;2024-03-23T02:18:07;99470.09;;;9.97;100.00
13348;BME280;6743;49.934;9.138;2024-03-23T02:20:32;99474.97;;;9.93;100.00
13348;BME280;6743;49.934;9.138;2024-03-23T02:22:59;99469.50;;;9.95;100.00
13348;BME280;6743;49.934;9.138;2024-03-23T02:25:25;99459.87;;;9.94;100.00
13348;BME280;6743;49.934;9.138;2024-03-23T02:27:51;99458.25;;;9.93;100.00
13348;BME280;6743;49.934;9.138;2024-03-23T02:30:18;99440.69;;;9.92;100.00
13348;BME280;6743;49.934;9.138;2024-03-23T02:32:44;99413.41;;;9.68;100.00
13348;BME280;6743;49.934;9.138;2024-03-23T02:35:10;99445.16;;;9.91;100.00
13348;BME280;6743;49.934;9.138;2024-03-23T02:37:36;99454.94;;;9.91;100.00
13348;BME280;6743;49.934;9.138;2024-03-23T02:40:03;99436.00;;;9.79;100.00
13348;BME280;6743;49.934;9.138;2024-03-23T02:42:30;99409.94;;;9.53;100.00
13348;BME280;6743;49.934;9.138;2024-03-23T02:44:56;99458.97;;;9.86;100.00
13348;BME280;6743;49.934;9.138;2024-03-23T02:47:22;99463.59;;;9.84;100.00
13348;BME280;6743;49.934;9.138;2024-03-23T02:49:48;99454.00;;;9.83;100.00
13348;BME280;6743;49.934;9.138;2024-03-23T02:52:14;99458.31;;;9.84;100.00
13348;BME280;6743;49.934;9.138;2024-03-23T02:54:40;99445.22;;;9.83;100.00
13348;BME280;6743;49.934;9.138;2024-03-23T02:57:08;99440.31;;;9.80;100.00
13348;BME280;6743;49.934;9.138;2024-03-23T02:59:34;99429.72;;;9.80;100.00
13348;BME280;6743;49.934;9.138;2024-03-23T03:02:00;99418.66;;;9.76;100.00
13348;BME280;6743;49.934;9.138;2024-03-23T03:04:26;99431.72;;;9.78;100.00
13348;BME280;6743;49.934;9.138;2024-03-23T03:06:52;99426.06;;;9.81;100.00
13348;BME280;6743;49.934;9.138;2024-03-23T03:09:18;99394.88;;;9.68;100.00
13348;BME280;6743;49.934;9.138;2024-03-23T03:11:44;99419.56;;;9.83;100.00
13348;BME280;6743;49.934;9.138;2024-03-23T03:14:11;99411.44;;;9.85;100.00
13348;BME280;6743;49.934;9.138;2024-03-23T03:16:36;99419.88;;;9.88;100.00
13348;BME280;6743;49.934;9.138;2024-03-23T03:19:02;99412.28;;;9.85;100.00
13348;BME280;6743;49.934;9.138;2024-03-23T03:21:28;99416.56;;;9.86;100.00
13348;BME280;6743;49.934;9.138;2024-03-23T03:23:54;99411.44;;;9.85;100.00
13348;BME280;6743;49.934;9.138;2024-03-23T03:26:21;99403.69;;;9.83;100.00
13348;BME280;6743;49.934;9.138;2024-03-23T03:28:47;99398.37;;;9.83;100.00
13348;BME280;6743;49.934;9.138;2024-03-23T03:31:14;99394.72;;;9.84;100.00
13348;BME280;6743;49.934;9.138;2024-03-23T03:33:40;99390.25;;;9.85;100.00
13348;BME280;6743;49.934;9.138;2024-03-23T03:36:06;99395.72;;;9.83;100.00
13348;BME280;6743;49.934;9.138;2024-03-23T03:38:32;99388.44;;;9.85;100.00
13348;BME280;6743;49.934;9.138;2024-03-23T03:41:00;99387.59;;;9.85;100.00
13348;BME280;6743;49.934;9.138;2024-03-23T03:43:26;99383.31;;;9.84;100.00
13348;BME280;6743;49.934;9.138;2024-03-23T03:45:52;99378.84;;;9.84;100.00
13348;BME280;6743;49.934;9.138;2024-03-23T03:48:19;99363.78;;;9.85;100.00
13348;BME280;6743;49.934;9.138;2024-03-23T03:50:44;99375.19;;;9.85;100.00
13348;BME280;6743;49.934;9.138;2024-03-23T03:53:10;99361.94;;;9.85;100.00
13348;BME280;6743;49.934;9.138;2024-03-23T03:55:37;99339.84;;;9.78;100.00
13348;BME280;6743;49.934;9.138;2024-03-23T03:58:03;99349.25;;;9.81;100.00
13348;BME280;6743;49.934;9.138;2024-03-23T04:00:32;99351.63;;;9.91;100.00
13348;BME280;6743;49.934;9.138;2024-03-23T04:02:58;99362.03;;;9.92;100.00
13348;BME280;6743;49.934;9.138;2024-03-23T04:05:24;99358.38;;;9.93;100.00
13348;BME280;6743;49.934;9.138;2024-03-23T04:07:50;99368.59;;;9.96;100.00
13348;BME280;6743;49.934;9.138;2024-03-23T04:10:16;99346.69;;;9.87;100.00
13348;BME280;6743;49.934;9.138;2024-03-23T04:12:43;99356.19;;;9.97;100.00
13348;BME280;6743;49.934;9.138;2024-03-23T04:15:09;99359.88;;;9.96;100.00
13348;BME280;6743;49.934;9.138;2024-03-23T04:17:35;99361.47;;;9.97;100.00
13348;BME280;6743;49.934;9.138;2024-03-23T04:20:01;99354.56;;;9.96;100.00
13348;BME280;6743;49.934;9.138;2024-03-23T04:22:29;99352.91;;;9.95;100.00
13348;BME280;6743;49.934;9.138;2024-03-23T04:24:55;99348.78;;;9.92;100.00
13348;BME280;6743;49.934;9.138;2024-03-23T04:27:22;99351.63;;;9.91;100.00
13348;BME280;6743;49.934;9.138;2024-03-23T04:29:48;99344.78;;;9.81;100.00
13348;BME280;6743;49.934;9.138;2024-03-23T04:32:14;99356.09;;;9.90;100.00
13348;BME280;6743;49.934;9.138;2024-03-23T04:34:40;99329.87;;;9.80;100.00
13348;BME280;6743;49.934;9.138;2024-03-23T04:37:06;99343.31;;;9.94;100.00
13348;BME280;6743;49.934;9.138;2024-03-23T04:39:33;99289.88;;;9.61;100.00
13348;BME280;6743;49.934;9.138;2024-03-23T04:41:59;99343.84;;;10.04;100.00
13348;BME280;6743;49.934;9.138;2024-03-23T04:44:26;99327.50;;;10.00;100.00
13348;BME280;6743;49.934;9.138;2024-03-23T04:46:52;99324.22;;;10.13;100.00
13348;BME280;6743;49.934;9.138;2024-03-23T04:49:18;99328.16;;;10.17;100.00
13348;BME280;6743;49.934;9.138;2024-03-23T04:51:45;99325.03;;;10.28;100.00
13348;BME280;6743;49.934;9.138;2024-03-23T04:54:11;99324.31;;;10.34;100.00
13348;BME280;6743;49.934;9.138;2024-03-23T04:56:38;99322.91;;;10.38;100.00
13348;BME280;6743;49.934;9.138;2024-03-23T04:59:04;99329.75;;;10.47;100.00
13348;BME280;6743;49.934;9.138;2024-03-23T05:01:30;99333.31;;;10.54;100.00
13348;BME280;6743;49.934;9.138;2024-03-23T05:03:56;99330.44;;;10.71;100.00
13348;BME280;6743;49.934;9.138;2024-03-23T05:06:22;99371.69;;;10.94;100.00
13348;BME280;6743;49.934;9.138;2024-03-23T05:08:48;99354.56;;;10.97;100.00
13348;BME280;6743;49.934;9.138;2024-03-23T05:11:17;99393.09;;;10.72;100.00
13348;BME280;6743;49.934;9.138;2024-03-23T05:13:45;99393.03;;;10.36;100.00
13348;BME280;6743;49.934;9.138;2024-03-23T05:16:14;99398.59;;;10.11;100.00
13348;BME280;6743;49.934;9.138;2024-03-23T05:18:41;99406.81;;;9.87;100.00
13348;BME280;6743;49.934;9.138;2024-03-23T05:21:08;99406.69;;;9.66;100.00
13348;BME280;6743;49.934;9.138;2024-03-23T05:23:33;99419.16;;;9.57;100.00
13348;BME280;6743;49.934;9.138;2024-03-23T05:26:03;99435.38;;;9.39;100.00
13348;BME280;6743;49.934;9.138;2024-03-23T05:28:30;99420.19;;;9.11;100.00
13348;BME280;6743;49.934;9.138;2024-03-23T05:30:56;99430.50;;;9.20;100.00
13348;BME280;6743;49.934;9.138;2024-03-23T05:33:22;99433.41;;;9.11;100.00
13348;BME280;6743;49.934;9.138;2024-03-23T05:35:56;99422.03;;;9.02;100.00
13348;BME280;6743;49.934;9.138;2024-03-23T05:38:21;99436.87;;;9.11;100.00
13348;BME280;6743;49.934;9.138;2024-03-23T05:40:53;99454.44;;;9.04;100.00
13348;BME280;6743;49.934;9.138;2024-03-23T05:43:21;99475.16;;;8.92;100.00
13348;BME280;6743;49.934;9.138;2024-03-23T05:45:53;99465.69;;;8.67;100.00
13348;BME280;6743;49.934;9.138;2024-03-23T05:48:19;99506.34;;;8.66;100.00
13348;BME280;6743;49.934;9.138;2024-03-23T05:50:46;99512.16;;;8.61;100.00
13348;BME280;6743;49.934;9.138;2024-03-23T05:53:11;99519.13;;;8.46;100.00
13348;BME280;6743;49.934;9.138;2024-03-23T05:55:38;99530.69;;;8.45;100.00
13348;BME280;6743;49.934;9.138;2024-03-23T05:58:04;99539.13;;;8.49;100.00
13348;BME280;6743;49.934;9.138;2024-03-23T06:00:30;99550.03;;;8.38;100.00
13348;BME280;6743;49.934;9.138;2024-03-23T06:02:56;99556.00;;;8.40;100.00
13348;BME280;6743;49.934;9.138;2024-03-23T06:05:23;99562.94;;;8.33;100.00
13348;BME280;6743;49.934;9.138;2024-03-23T06:07:49;99566.25;;;8.35;100.00
13348;BME280;6743;49.934;9.138;2024-03-23T06:10:15;99547.72;;;8.18;100.00
13348;BME280;6743;49.934;9.138;2024-03-23T06:12:41;99557.47;;;8.18;100.00
13348;BME280;6743;49.934;9.138;2024-03-23T06:15:08;99563.09;;;8.15;100.00
13348;BME280;6743;49.934;9.138;2024-03-23T06:17:35;99568.88;;;8.18;100.00
13348;BME280;6743;49.934;9.138;2024-03-23T06:20:02;99570.19;;;8.14;100.00
13348;BME280;6743;49.934;9.138;2024-03-23T06:22:28;99575.97;;;8.10;100.00
13348;BME280;6743;49.934;9.138;2024-03-23T06:24:54;99587.84;;;8.06;100.00
13348;BME280;6743;49.934;9.138;2024-03-23T06:27:20;99591.84;;;8.02;100.00
13348;BME280;6743;49.934;9.138;2024-03-23T06:29:46;99569.84;;;7.77;100.00
13348;BME280;6743;49.934;9.138;2024-03-23T06:32:11;99597.56;;;7.89;100.00
13348;BME280;6743;49.934;9.138;2024-03-23T06:34:37;99605.16;;;7.84;100.00
13348;BME280;6743;49.934;9.138;2024-03-23T06:37:03;99608.31;;;7.87;100.00
13348;BME280;6743;49.934;9.138;2024-03-23T06:39:30;99605.84;;;7.86;100.00
13348;BME280;6743;49.934;9.138;2024-03-23T06:41:56;99612.78;;;7.87;100.00
13348;BME280;6743;49.934;9.138;2024-03-23T06:44:22;99617.72;;;7.90;100.00
13348;BME280;6743;49.934;9.138;2024-03-23T06:46:48;99615.91;;;7.74;100.00
13348;BME280;6743;49.934;9.138;2024-03-23T06:49:14;99635.56;;;7.88;100.00
13348;BME280;6743;49.934;9.138;2024-03-23T06:51:40;99645.09;;;7.89;100.00
13348;BME280;6743;49.934;9.138;2024-03-23T06:54:07;99668.53;;;7.84;100.00
13348;BME280;6743;49.934;9.138;2024-03-23T06:56:33;99672.69;;;7.86;100.00
13348;BME280;6743;49.934;9.138;2024-03-23T06:58:59;99692.97;;;7.86;100.00
13348;BME280;6743;49.934;9.138;2024-03-23T07:01:25;99699.41;;;7.83;100.00
13348;BME280;6743;49.934;9.138;2024-03-23T07:03:51;99706.50;;;7.83;100.00
13348;BME280;6743;49.934;9.138;2024-03-23T07:06:16;99694.59;;;7.71;100.00
13348;BME280;6743;49.934;9.138;2024-03-23T07:08:42;99713.78;;;7.81;100.00
13348;BME280;6743;49.934;9.138;2024-03-23T07:11:08;99709.47;;;7.80;100.00
13348;BME280;6743;49.934;9.138;2024-03-23T07:13:35;99712.56;;;7.75;100.00
13348;BME280;6743;49.934;9.138;2024-03-23T07:16:00;99713.59;;;7.74;100.00
13348;BME280;6743;49.934;9.138;2024-03-23T07:18:26;99712.75;;;7.74;100.00
13348;BME280;6743;49.934;9.138;2024-03-23T07:20:53;99686.09;;;7.51;100.00
13348;BME280;6743;49.934;9.138;2024-03-23T07:23:19;99726.13;;;7.72;100.00
13348;BME280;6743;49.934;9.138;2024-03-23T07:25:45;99746.41;;;7.72;100.00
13348;BME280;6743;49.934;9.138;2024-03-23T07:28:11;99744.75;;;7.71;100.00
13348;BME280;6743;49.934;9.138;2024-03-23T07:30:37;99734.28;;;7.61;100.00
13348;BME280;6743;49.934;9.138;2024-03-23T07:33:04;99756.13;;;7.71;100.00
13348;BME280;6743;49.934;9.138;2024-03-23T07:35:29;99766.22;;;7.76;100.00
13348;BME280;6743;49.934;9.138;2024-03-23T07:37:55;99773.94;;;7.69;100.00
13348;BME280;6743;49.934;9.138;2024-03-23T07:40:21;99780.56;;;7.73;100.00
13348;BME280;6743;49.934;9.138;2024-03-23T07:42:47;99744.78;;;7.45;100.00
13348;BME280;6743;49.934;9.138;2024-03-23T07:45:13;99788.31;;;7.67;100.00
13348;BME280;6743;49.934;9.138;2024-03-23T07:47:40;99792.22;;;7.63;100.00
13348;BME280;6743;49.934;9.138;2024-03-23T07:50:06;99801.66;;;7.65;100.00
13348;BME280;6743;49.934;9.138;2024-03-23T07:52:32;99812.66;;;7.61;100.00
13348;BME280;6743;49.934;9.138;2024-03-23T07:54:58;99818.78;;;7.61;100.00
13348;BME280;6743;49.934;9.138;2024-03-23T07:57:24;99831.13;;;7.61;100.00
13348;BME280;6743;49.934;9.138;2024-03-23T07:59:50;99826.19;;;7.58;100.00
13348;BME280;6743;49.934;9.138;2024-03-23T08:02:17;99846.78;;;7.54;100.00
13348;BME280;6743;49.934;9.138;2024-03-23T08:04:43;99845.44;;;7.50;100.00
13348;BME280;6743;49.934;9.138;2024-03-23T08:07:09;99847.09;;;7.51;100.00
13348;BME280;6743;49.934;9.138;2024-03-23T08:09:35;99844.97;;;7.55;100.00
13348;BME280;6743;49.934;9.138;2024-03-23T08:12:01;99848.97;;;7.59;100.00
13348;BME280;6743;49.934;9.138;2024-03-23T08:14:27;99854.91;;;7.61;100.00
13348;BME280;6743;49.934;9.138;2024-03-23T08:16:54;99852.09;;;7.62;100.00
13348;BME280;6743;49.934;9.138;2024-03-23T08:19:20;99849.63;;;7.61;100.00
13348;BME280;6743;49.934;9.138;2024-03-23T08:21:46;99854.59;;;7.64;100.00
13348;BME280;6743;49.934;9.138;2024-03-23T08:24:12;99861.88;;;7.70;100.00
13348;BME280;6743;49.934;9.138;2024-03-23T08:26:38;99870.50;;;7.72;100.00
13348;BME280;6743;49.934;9.138;2024-03-23T08:29:05;99875.28;;;7.76;100.00
13348;BME280;6743;49.934;9.138;2024-03-23T08:31:31;99888.28;;;7.70;100.00
13348;BME280;6743;49.934;9.138;2024-03-23T08:33:56;99891.63;;;7.54;100.00
13348;BME280;6743;49.934;9.138;2024-03-23T08:36:22;99868.69;;;7.29;100.00
13348;BME280;6743;49.934;9.138;2024-03-23T08:38:50;99908.09;;;7.48;100.00
13348;BME280;6743;49.934;9.138;2024-03-23T08:41:19;99907.66;;;7.53;100.00
13348;BME280;6743;49.934;9.138;2024-03-23T08:43:44;99847.84;;;7.18;100.00
13348;BME280;6743;49.934;9.138;2024-03-23T08:46:11;99917.28;;;7.62;100.00
13348;BME280;6743;49.934;9.138;2024-03-23T08:48:38;99924.56;;;7.68;100.00
13348;BME280;6743;49.934;9.138;2024-03-23T08:51:06;99921.94;;;7.68;100.00
13348;BME280;6743;49.934;9.138;2024-03-23T08:53:33;99923.78;;;7.67;100.00
13348;BME280;6743;49.934;9.138;2024-03-23T08:56:00;99948.03;;;7.71;100.00
13348;BME280;6743;49.934;9.138;2024-03-23T08:58:28;99939.44;;;7.69;100.00
13348;BME280;6743;49.934;9.138;2024-03-23T09:00:56;99949.03;;;7.70;100.00
13348;BME280;6743;49.934;9.138;2024-03-23T09:03:22;99938.47;;;7.70;100.00
13348;BME280;6743;49.934;9.138;2024-03-23T09:05:48;99954.31;;;7.70;100.00
13348;BME280;6743;49.934;9.138;2024-03-23T09:08:14;99957.97;;;7.77;100.00
13348;BME280;6743;49.934;9.138;2024-03-23T09:10:40;99946.16;;;7.81;100.00
13348;BME280;6743;49.934;9.138;2024-03-23T09:13:07;99945.06;;;7.91;100.00
13348;BME280;6743;49.934;9.138;2024-03-23T09:15:35;99945.19;;;7.90;100.00
13348;BME280;6743;49.934;9.138;2024-03-23T09:18:01;99959.28;;;7.99;100.00
13348;BME280;6743;49.934;9.138;2024-03-23T09:20:27;99959.50;;;8.05;100.00
13348;BME280;6743;49.934;9.138;2024-03-23T09:22:53;99951.28;;;8.08;100.00
13348;BME280;6743;49.934;9.138;2024-03-23T09:25:19;99919.63;;;7.90;100.00
13348;BME280;6743;49.934;9.138;2024-03-23T09:27:46;99949.66;;;8.15;100.00
13348;BME280;6743;49.934;9.138;2024-03-23T09:30:13;99945.22;;;8.24;100.00
13348;BME280;6743;49.934;9.138;2024-03-23T09:32:39;99936.47;;;8.23;100.00
13348;BME280;6743;49.934;9.138;2024-03-23T09:35:05;99958.75;;;8.47;100.00
13348;BME280;6743;49.934;9.138;2024-03-23T09:37:31;99953.38;;;8.56;100.00
13348;BME280;6743;49.934;9.138;2024-03-23T09:39:57;99953.72;;;8.61;100.00
13348;BME280;6743;49.934;9.138;2024-03-23T09:42:23;99965.78;;;8.72;100.00
13348;BME280;6743;49.934;9.138;2024-03-23T09:44:51;99957.88;;;8.72;100.00
13348;BME280;6743;49.934;9.138;2024-03-23T09:47:17;99959.69;;;8.72;100.00
13348;BME280;6743;49.934;9.138;2024-03-23T09:49:44;99968.81;;;8.77;100.00
13348;BME280;6743;49.934;9.138;2024-03-23T09:52:10;99971.13;;;8.80;100.00
13348;BME280;6743;49.934;9.138;2024-03-23T09:54:36;99975.28;;;8.83;100.00
13348;BME280;6743;49.934;9.138;2024-03-23T09:57:03;99945.81;;;8.69;100.00
13348;BME280;6743;49.934;9.138;2024-03-23T09:59:29;99975.63;;;8.88;100.00
13348;BME280;6743;49.934;9.138;2024-03-23T10:01:55;99966.88;;;8.95;100.00
13348;BME280;6743;49.934;9.138;2024-03-23T10:04:38;99957.94;;;8.96;100.00
13348;BME280;6743;49.934;9.138;2024-03-23T10:07:11;99945.56;;;8.97;100.00
13348;BME280;6743;49.934;9.138;2024-03-23T10:09:37;99949.56;;;9.17;100.00
13348;BME280;6743;49.934;9.138;2024-03-23T10:12:09;99955.34;;;9.29;100.00
13348;BME280;6743;49.934;9.138;2024-03-23T10:14:35;99973.06;;;9.36;100.00
13348;BME280;6743;49.934;9.138;2024-03-23T10:17:12;99959.97;;;9.27;100.00
13348;BME280;6743;49.934;9.138;2024-03-23T10:19:40;99962.47;;;9.36;100.00
13348;BME280;6743;49.934;9.138;2024-03-23T10:22:08;99958.84;;;9.45;100.00
13348;BME280;6743;49.934;9.138;2024-03-23T10:24:35;99965.63;;;9.56;100.00
13348;BME280;6743;49.934;9.138;2024-03-23T10:27:00;99947.78;;;9.66;100.00
13348;BME280;6743;49.934;9.138;2024-03-23T10:29:26;99960.03;;;9.67;100.00
13348;BME280;6743;49.934;9.138;2024-03-23T10:31:53;99955.87;;;9.65;100.00
13348;BME280;6743;49.934;9.138;2024-03-23T10:34:25;99949.28;;;9.61;100.00
13348;BME280;6743;49.934;9.138;2024-03-23T10:36:53;99927.25;;;9.44;100.00
13348;BME280;6743;49.934;9.138;2024-03-23T10:39:20;99950.09;;;9.53;100.00
13348;BME280;6743;49.934;9.138;2024-03-23T10:41:49;99949.25;;;9.53;100.00
13348;BME280;6743;49.934;9.138;2024-03-23T10:44:17;99947.28;;;9.46;100.00
13348;BME280;6743;49.934;9.138;2024-03-23T10:46:45;99930.56;;;9.54;100.00
13348;BME280;6743;49.934;9.138;2024-03-23T10:49:10;99941.31;;;9.61;100.00
13348;BME280;6743;49.934;9.138;2024-03-23T10:51:37;99928.56;;;9.64;100.00
13348;BME280;6743;49.934;9.138;2024-03-23T10:54:04;99929.72;;;9.78;100.00
13348;BME280;6743;49.934;9.138;2024-03-23T10:56:32;99925.91;;;9.88;100.00
13348;BME280;6743;49.934;9.138;2024-03-23T10:59:02;99923.72;;;10.00;100.00
13348;BME280;6743;49.934;9.138;2024-03-23T11:01:32;99935.81;;;9.95;100.00
13348;BME280;6743;49.934;9.138;2024-03-23T11:03:58;99908.13;;;10.05;100.00
13348;BME280;6743;49.934;9.138;2024-03-23T11:06:35;99896.69;;;10.13;100.00
13348;BME280;6743;49.934;9.138;2024-03-23T11:09:01;99915.22;;;10.29;100.00
13348;BME280;6743;49.934;9.138;2024-03-23T11:11:27;99925.63;;;10.31;100.00
13348;BME280;6743;49.934;9.138;2024-03-23T11:13:57;99924.50;;;10.25;100.00
13348;BME280;6743;49.934;9.138;2024-03-23T11:16:23;99870.59;;;9.77;100.00
13348;BME280;6743;49.934;9.138;2024-03-23T11:18:50;99912.94;;;10.02;100.00
13348;BME280;6743;49.934;9.138;2024-03-23T11:24:28;99941.47;;;9.67;100.00
13348;BME280;6743;49.934;9.138;2024-03-23T11:26:55;99961.47;;;9.21;100.00
13348;BME280;6743;49.934;9.138;2024-03-23T11:29:21;99968.38;;;9.06;100.00
13348;BME280;6743;49.934;9.138;2024-03-23T11:31:49;99918.69;;;8.67;100.00
13348;BME280;6743;49.934;9.138;2024-03-23T11:34:15;99935.72;;;8.73;100.00
13348;BME280;6743;49.934;9.138;2024-03-23T11:36:42;99954.91;;;8.75;100.00
13348;BME280;6743;49.934;9.138;2024-03-23T11:39:15;99948.53;;;8.52;100.00
13348;BME280;6743;49.934;9.138;2024-03-23T11:41:46;99994.59;;;8.23;100.00
13348;BME280;6743;49.934;9.138;2024-03-23T11:44:16;100010.25;;;8.17;100.00
13348;BME280;6743;49.934;9.138;2024-03-23T11:46:43;99999.44;;;8.28;100.00
13348;BME280;6743;49.934;9.138;2024-03-23T11:49:20;100023.06;;;8.04;100.00
13348;BME280;6743;49.934;9.138;2024-03-23T11:51:47;100035.12;;;8.06;100.00
13348;BME280;6743;49.934;9.138;2024-03-23T11:54:13;100029.09;;;7.96;100.00
13348;BME280;6743;49.934;9.138;2024-03-23T11:56:39;100016.91;;;7.77;100.00
13348;BME280;6743;49.934;9.138;2024-03-23T11:59:06;100059.47;;;7.74;100.00
13348;BME280;6743;49.934;9.138;2024-03-23T12:01:33;100038.03;;;7.95;100.00
13348;BME280;6743;49.934;9.138;2024-03-23T12:03:59;100012.88;;;7.91;100.00
13348;BME280;6743;49.934;9.138;2024-03-23T12:06:25;100006.63;;;7.92;100.00
13348;BME280;6743;49.934;9.138;2024-03-23T12:08:51;100007.47;;;7.93;100.00
13348;BME280;6743;49.934;9.138;2024-03-23T12:11:17;99989.53;;;8.04;100.00
13348;BME280;6743;49.934;9.138;2024-03-23T12:13:45;99980.84;;;8.12;100.00
13348;BME280;6743;49.934;9.138;2024-03-23T12:16:13;99980.91;;;8.20;100.00
13348;BME280;6743;49.934;9.138;2024-03-23T12:18:41;99960.06;;;8.17;100.00
13348;BME280;6743;49.934;9.138;2024-03-23T12:21:07;99950.44;;;8.34;100.00
13348;BME280;6743;49.934;9.138;2024-03-23T12:23:33;99953.16;;;8.50;100.00
13348;BME280;6743;49.934;9.138;2024-03-23T12:25:59;99945.09;;;8.59;100.00
13348;BME280;6743;49.934;9.138;2024-03-23T12:28:25;99942.69;;;8.74;100.00
13348;BME280;6743;49.934;9.138;2024-03-23T12:30:51;99939.91;;;8.84;100.00
13348;BME280;6743;49.934;9.138;2024-03-23T12:33:17;99878.69;;;8.62;100.00
13348;BME280;6743;49.934;9.138;2024-03-23T12:35:44;99926.69;;;8.92;100.00
13348;BME280;6743;49.934;9.138;2024-03-23T12:38:09;99929.84;;;8.95;100.00
13348;BME280;6743;49.934;9.138;2024-03-23T12:40:35;99921.09;;;9.03;100.00
13348;BME280;6743;49.934;9.138;2024-03-23T12:43:01;99921.94;;;9.12;100.00
13348;BME280;6743;49.934;9.138;2024-03-23T12:45:27;99907.19;;;9.09;100.00
13348;BME280;6743;49.934;9.138;2024-03-23T12:47:53;99866.66;;;8.84;100.00
13348;BME280;6743;49.934;9.138;2024-03-23T12:50:19;99894.28;;;9.06;100.00
13348;BME280;6743;49.934;9.138;2024-03-23T12:52:45;99907.03;;;9.11;100.00
13348;BME280;6743;49.934;9.138;2024-03-23T12:55:11;99883.06;;;9.20;100.00
13348;BME280;6743;49.934;9.138;2024-03-23T12:57:37;99889.03;;;9.30;100.00
13348;BME280;6743;49.934;9.138;2024-03-23T13:00:04;99891.50;;;9.40;100.00
13348;BME280;6743;49.934;9.138;2024-03-23T13:02:30;99874.13;;;9.54;100.00
13348;BME280;6743;49.934;9.138;2024-03-23T13:04:56;99881.41;;;9.68;100.00
13348;BME280;6743;49.934;9.138;2024-03-23T13:07:23;99864.31;;;9.78;100.00
13348;BME280;6743;49.934;9.138;2024-03-23T13:09:51;99875.19;;;9.92;100.00
13348;BME280;6743;49.934;9.138;2024-03-23T13:12:17;99886.09;;;10.05;100.00
13348;BME280;6743;49.934;9.138;2024-03-23T13:14:44;99856.47;;;10.01;100.00
13348;BME280;6743;49.934;9.138;2024-03-23T13:17:10;99873.78;;;10.28;100.00
13348;BME280;6743;49.934;9.138;2024-03-23T13:19:36;99888.19;;;10.34;100.00
13348;BME280;6743;49.934;9.138;2024-03-23T13:22:03;99881.06;;;10.34;100.00
13348;BME280;6743;49.934;9.138;2024-03-23T13:24:30;99883.53;;;10.36;100.00
13348;BME280;6743;49.934;9.138;2024-03-23T13:26:58;99882.06;;;10.25;100.00
13348;BME280;6743;49.934;9.138;2024-03-23T13:29:25;99874.66;;;10.20;100.00
13348;BME280;6743;49.934;9.138;2024-03-23T13:31:51;99883.94;;;10.16;100.00
13348;BME280;6743;49.934;9.138;2024-03-23T13:34:18;99894.19;;;10.11;100.00
13348;BME280;6743;49.934;9.138;2024-03-23T13:36:45;99883.12;;;10.08;100.00
13348;BME280;6743;49.934;9.138;2024-03-23T13:39:11;99910.63;;;10.07;100.00
13348;BME280;6743;49.934;9.138;2024-03-23T13:41:38;99924.22;;;9.96;100.00
13348;BME280;6743;49.934;9.138;2024-03-23T13:44:05;99918.59;;;9.91;100.00
13348;BME280;6743;49.934;9.138;2024-03-23T13:46:31;99921.44;;;9.81;100.00
13348;BME280;6743;49.934;9.138;2024-03-23T13:48:57;99939.47;;;9.69;100.00
13348;BME280;6743;49.934;9.138;2024-03-23T13:51:24;99933.84;;;9.48;100.00
13348;BME280;6743;49.934;9.138;2024-03-23T13:53:50;99930.56;;;9.38;100.00
13348;BME280;6743;49.934;9.138;2024-03-23T13:56:16;99942.97;;;9.37;100.00
13348;BME280;6743;49.934;9.138;2024-03-23T13:58:43;99939.28;;;9.14;100.00
13348;BME280;6743;49.934;9.138;2024-03-23T14:01:13;99973.50;;;9.07;100.00